Time;durP1;ratioP1;P1;durP2;ratioP2;P2;SDS_P1;SDS_P2;PMS_P1;PMS_P2;Temp;Humidity;BMP_temperature;BMP_pressure;BME280_temperature;BME280_humidity;BME280_pressure;Samples;Min_cycle;Max_cycle;Signal;HPM_P1;HPM_P2
2021/04/23 00:06:52;;;;;;;1.20;1.07;;;12.40;99.90;;;;;;20616621;28;20196;-75
2021/04/23 00:17:05;;;;;;;2.23;2.07;;;12.30;99.90;;;;;;20631288;28;20238;-76
2021/04/23 00:27:08;;;;;;;1.70;1.27;;;12.10;99.90;;;;;;20617738;28;20207;-76
2021/04/23 00:37:12;;;;;;;1.43;0.73;;;12.00;99.90;;;;;;20711815;23;20251;-77
2021/04/23 00:47:24;;;;;;;2.63;1.40;;;11.80;99.90;;;;;;20616583;28;21083;-78
2021/04/23 00:57:27;;;;;;;1.23;1.13;;;11.80;99.90;;;;;;20615619;28;20711;-77
2021/04/23 01:08:02;;;;;;;1.07;0.60;;;11.70;99.90;;;;;;20612695;28;20555;-78
2021/04/23 01:18:06;;;;;;;0.80;0.80;;;11.70;99.90;;;;;;20618452;28;20219;-75
2021/04/23 01:28:10;;;;;;;0.70;0.63;;;11.50;99.90;;;;;;20642341;28;20195;-75
2021/04/23 01:38:13;;;;;;;2.30;1.20;;;11.40;99.90;;;;;;20637618;28;20254;-74
2021/04/23 01:48:29;;;;;;;0.73;0.70;;;11.20;99.90;;;;;;20637974;28;20198;-76
2021/04/23 01:58:33;;;;;;;1.30;1.20;;;11.20;99.90;;;;;;20639549;28;20237;-75
2021/04/23 02:08:38;;;;;;;0.90;0.67;;;11.30;99.90;;;;;;20636229;28;20357;-74
2021/04/23 02:18:42;;;;;;;1.30;1.17;;;11.20;99.90;;;;;;20654062;28;20231;-73
2021/04/23 02:28:49;;;;;;;1.07;1.07;;;11.10;99.90;;;;;;20632572;28;20195;-73
2021/04/23 02:38:53;;;;;;;0.87;0.87;;;10.80;99.90;;;;;;20623560;28;20247;-75
2021/04/23 02:48:56;;;;;;;0.53;0.50;;;10.70;99.90;;;;;;20622837;28;20598;-75
2021/04/23 02:59:01;;;;;;;0.20;0.10;;;10.70;99.90;;;;;;20622751;28;20231;-76
2021/04/23 03:09:07;;;;;;;1.07;0.97;;;10.70;99.90;;;;;;20620469;28;20202;-76
2021/04/23 03:19:12;;;;;;;0.27;0.27;;;10.80;99.90;;;;;;20619560;28;20266;-75
2021/04/23 03:29:17;;;;;;;7.13;1.43;;;10.60;99.90;;;;;;20620520;28;20206;-76
2021/04/23 03:39:20;;;;;;;1.13;1.03;;;10.60;99.90;;;;;;20618071;28;20311;-76
2021/04/23 03:49:24;;;;;;;0.73;0.73;;;10.50;99.90;;;;;;20620540;28;20674;-76
2021/04/23 03:59:28;;;;;;;2.13;1.13;;;10.60;99.90;;;;;;20617023;28;20365;-75
2021/04/23 04:09:32;;;;;;;1.33;1.33;;;10.60;99.90;;;;;;20617013;28;20192;-75
2021/04/23 04:29:55;;;;;;;1.33;1.00;;;10.50;99.90;;;;;;20628912;28;20207;-76
2021/04/23 04:39:58;;;;;;;0.57;0.50;;;10.40;99.90;;;;;;20614497;28;20413;-77
2021/04/23 04:50:06;;;;;;;0.93;0.57;;;10.40;99.90;;;;;;20612963;28;20239;-74
2021/04/23 05:00:11;;;;;;;2.90;0.60;;;10.30;99.90;;;;;;20612744;28;21100;-74
2021/04/23 05:10:15;;;;;;;2.33;0.70;;;10.30;99.90;;;;;;20611596;28;20293;-74
2021/04/23 05:20:21;;;;;;;0.40;0.40;;;10.20;99.90;;;;;;20613269;28;20537;-74
2021/04/23 05:30:26;;;;;;;0.77;0.77;;;10.40;99.90;;;;;;20610171;28;20214;-75
2021/04/23 05:40:32;;;;;;;0.40;0.40;;;10.50;99.90;;;;;;20608318;28;20684;-77
2021/04/23 05:50:36;;;;;;;0.20;0.10;;;10.70;99.90;;;;;;20606086;28;20198;-75
2021/04/23 06:00:42;;;;;;;0.53;0.53;;;10.80;99.90;;;;;;20605166;28;20258;-74
2021/04/23 06:10:47;;;;;;;0.30;0.30;;;11.30;99.90;;;;;;20618450;28;20199;-74
2021/04/23 06:20:50;;;;;;;0.40;0.40;;;11.70;99.90;;;;;;20619669;28;20710;-75
2021/04/23 06:30:54;;;;;;;0.20;0.10;;;12.20;99.90;;;;;;20621997;28;20238;-73
2021/04/23 06:40:58;;;;;;;0.97;0.97;;;13.00;99.90;;;;;;20620753;28;20224;-77
2021/04/23 06:51:04;;;;;;;0.20;0.10;;;13.60;99.90;;;;;;20623325;28;20282;-76
2021/04/23 07:01:06;;;;;;;0.87;0.30;;;13.90;99.90;;;;;;20619989;28;20231;-76
2021/04/23 07:11:10;;;;;;;0.57;0.57;;;14.30;99.90;;;;;;20616987;28;20207;-73
2021/04/23 07:21:12;;;;;;;0.23;0.20;;;14.60;99.90;;;;;;20617489;28;20254;-71
2021/04/23 07:31:16;;;;;;;0.67;0.50;;;14.90;99.90;;;;;;20617351;28;20252;-74
2021/04/23 07:41:19;;;;;;;0.20;0.10;;;14.90;99.90;;;;;;20619511;28;20226;-68
2021/04/23 07:51:23;;;;;;;0.20;0.10;;;15.00;99.90;;;;;;20616354;28;20378;-73
2021/04/23 08:01:25;;;;;;;0.50;0.50;;;15.20;99.90;;;;;;20616956;28;20223;-66
2021/04/23 08:11:29;;;;;;;0.63;0.43;;;15.00;99.90;;;;;;20617471;28;20198;-74
2021/04/23 08:21:32;;;;;;;0.20;0.10;;;15.20;99.90;;;;;;20615677;28;20220;-78
2021/04/23 08:31:35;;;;;;;0.57;0.57;;;15.30;99.90;;;;;;20613375;28;20473;-78
2021/04/23 08:41:40;;;;;;;10.90;0.90;;;15.40;99.90;;;;;;20610785;28;20228;-78
2021/04/23 08:51:47;;;;;;;3.50;1.33;;;15.60;99.90;;;;;;20611933;28;20465;-77
2021/04/23 09:01:52;;;;;;;4.77;0.93;;;15.80;99.90;;;;;;20611105;28;20227;-80
2021/04/23 09:11:56;;;;;;;0.30;0.30;;;15.90;99.90;;;;;;20607584;28;20199;-77
2021/04/23 09:22:03;;;;;;;0.60;0.47;;;15.90;99.90;;;;;;20614225;28;20223;-77
2021/04/23 09:32:21;;;;;;;0.40;0.40;;;16.30;99.90;;;;;;20611027;28;20285;-77
2021/04/23 09:42:24;;;;;;;0.20;0.20;;;16.40;99.90;;;;;;20618036;28;20203;-78
2021/04/23 09:52:30;;;;;;;1.77;0.73;;;17.00;99.90;;;;;;20615974;28;20556;-86
2021/04/23 10:02:36;;;;;;;0.20;0.10;;;16.90;99.90;;;;;;20635143;28;20207;-87
2021/04/23 10:12:48;;;;;;;0.20;0.20;;;17.10;99.90;;;;;;20631073;28;20230;-75
2021/04/23 10:33:29;;;;;;;2.40;1.70;;;17.90;99.90;;;;;;20618723;28;20263;-74
2021/04/23 10:43:32;;;;;;;1.83;0.87;;;17.90;99.90;;;;;;20618580;28;20260;-73
2021/04/23 10:53:44;;;;;;;0.20;0.20;;;18.70;99.90;;;;;;20618822;28;20231;-74
2021/04/23 11:04:05;;;;;;;0.47;0.43;;;19.00;99.90;;;;;;20622071;28;20373;-77
2021/04/23 11:14:32;;;;;;;0.40;0.40;;;19.60;99.90;;;;;;20623174;28;20234;-80
2021/04/23 11:25:04;;;;;;;0.57;0.33;;;20.70;99.90;;;;;;20606988;28;20200;-83
2021/04/23 11:35:27;;;;;;;5.10;1.30;;;20.90;99.90;;;;;;20622875;28;20359;-84
2021/04/23 11:45:32;;;;;;;5.40;1.70;;;21.20;99.90;;;;;;20621722;28;20290;-79
2021/04/23 11:55:42;;;;;;;0.73;0.20;;;21.70;99.90;;;;;;20625750;28;20222;-79
2021/04/23 12:05:48;;;;;;;0.40;0.40;;;22.10;99.90;;;;;;20623190;28;20215;-77
2021/04/23 12:15:54;;;;;;;1.23;0.67;;;22.40;99.90;;;;;;20618026;28;20229;-79
2021/04/23 12:26:15;;;;;;;0.57;0.57;;;22.50;99.90;;;;;;20621963;28;20482;-81
2021/04/23 12:36:42;;;;;;;0.60;0.60;;;23.10;99.90;;;;;;20612884;28;20219;-84
2021/04/23 12:46:49;;;;;;;0.52;0.52;;;23.20;99.90;;;;;;20611407;28;20629;-74
2021/04/23 12:56:57;;;;;;;1.17;1.08;;;24.30;99.90;;;;;;20614352;28;20584;-85
2021/04/23 13:07:16;;;;;;;0.32;0.20;;;24.30;99.90;;;;;;20613784;28;20625;-81
2021/04/23 13:17:20;;;;;;;1.88;1.33;;;24.30;99.90;;;;;;20611347;28;20227;-75
2021/04/23 13:27:29;;;;;;;2.53;1.25;;;25.20;99.90;;;;;;20609766;28;20199;-78
2021/04/23 13:37:34;;;;;;;1.73;0.52;;;25.20;99.90;;;;;;20610148;28;20239;-78
2021/04/23 13:47:41;;;;;;;0.55;0.25;;;25.20;99.90;;;;;;20607938;28;20183;-76
2021/04/23 13:58:02;;;;;;;0.93;0.45;;;25.70;99.90;;;;;;20611750;28;20301;-73
2021/04/23 14:08:07;;;;;;;4.95;1.33;;;26.30;99.90;;;;;;20611562;28;20241;-82
2021/04/23 14:18:22;;;;;;;0.82;0.40;;;26.50;99.90;;;;;;20606513;28;20762;-77
2021/04/23 14:28:27;;;;;;;0.28;0.28;;;26.90;99.90;;;;;;20624429;28;20191;-82
2021/04/23 14:38:31;;;;;;;0.65;0.38;;;27.20;99.90;;;;;;20635162;28;20604;-79
2021/04/23 14:48:42;;;;;;;3.15;0.95;;;26.80;99.90;;;;;;20625739;28;20323;-76
2021/04/23 14:58:47;;;;;;;30.05;3.40;;;26.40;99.90;;;;;;20622434;28;20279;-80
2021/04/23 15:08:50;;;;;;;0.80;0.38;;;26.10;99.90;;;;;;20621781;28;20203;-77
2021/04/23 15:18:55;;;;;;;0.40;0.40;;;26.00;99.90;;;;;;20627223;28;20305;-81
2021/04/23 15:28:59;;;;;;;1.77;0.73;;;26.60;99.90;;;;;;20621124;28;20370;-77
2021/04/23 15:39:07;;;;;;;4.35;1.02;;;26.10;99.90;;;;;;20616065;28;20243;-75
2021/04/23 15:49:12;;;;;;;1.10;1.00;;;25.00;99.90;;;;;;20604111;28;21045;-82
2021/04/23 15:59:18;;;;;;;0.40;0.40;;;23.10;99.90;;;;;;20618399;28;20231;-82
2021/04/23 16:09:24;;;;;;;0.43;0.43;;;21.30;99.90;;;;;;20618165;28;20207;-78
2021/04/23 16:19:42;;;;;;;0.67;0.43;;;20.90;99.90;;;;;;20624040;28;20279;-83
2021/04/23 16:29:45;;;;;;;0.83;0.50;;;20.60;99.90;;;;;;20619346;28;20665;-78
2021/04/23 16:39:55;;;;;;;0.30;0.23;;;20.40;99.90;;;;;;20623371;28;20303;-85
2021/04/23 16:49:58;;;;;;;0.60;0.60;;;20.10;99.90;;;;;;20623598;28;20290;-77
2021/04/23 17:00:01;;;;;;;0.70;0.37;;;19.90;99.90;;;;;;20597823;28;20223;-79
2021/04/23 17:10:08;;;;;;;0.30;0.30;;;19.60;99.90;;;;;;20596296;28;20294;-82
2021/04/23 17:20:14;;;;;;;0.83;0.50;;;19.40;99.90;;;;;;20594900;28;20237;-81
2021/04/23 17:30:21;;;;;;;0.77;0.63;;;19.80;99.90;;;;;;20612639;28;20627;-75
2021/04/23 17:40:25;;;;;;;0.60;0.60;;;21.30;99.90;;;;;;20611834;28;20346;-81
2021/04/23 17:50:30;;;;;;;5.87;4.03;;;20.70;99.90;;;;;;20613117;28;20561;-71
2021/04/23 18:00:35;;;;;;;6.63;3.60;;;19.20;99.90;;;;;;20611355;28;20223;-74
2021/04/23 18:10:40;;;;;;;0.60;0.60;;;18.10;99.90;;;;;;20628371;28;20250;-77
2021/04/23 18:20:44;;;;;;;0.63;0.63;;;17.70;99.90;;;;;;20626419;28;20537;-74
2021/04/23 18:30:47;;;;;;;0.60;0.53;;;17.50;99.90;;;;;;20623408;28;20192;-78
2021/04/23 18:40:52;;;;;;;2.00;1.00;;;17.20;99.90;;;;;;20614359;28;20818;-77
2021/04/23 18:50:59;;;;;;;3.00;1.63;;;17.20;99.90;;;;;;20618651;28;20669;-76
2021/04/23 19:01:04;;;;;;;0.70;0.70;;;17.00;99.90;;;;;;20618755;28;20227;-76
2021/04/23 19:11:08;;;;;;;2.60;0.70;;;16.80;99.90;;;;;;20615701;28;20211;-78
2021/04/23 19:21:11;;;;;;;1.80;1.17;;;16.50;99.90;;;;;;20616070;28;20254;-81
2021/04/23 19:31:15;;;;;;;1.37;1.13;;;16.10;99.90;;;;;;20616543;28;20562;-80
2021/04/23 19:41:19;;;;;;;0.67;0.37;;;15.30;99.90;;;;;;20622071;28;20245;-80
2021/04/23 19:51:22;;;;;;;0.60;0.47;;;15.00;99.90;;;;;;20616314;28;20199;-81
2021/04/23 20:01:26;;;;;;;0.83;0.77;;;14.60;99.90;;;;;;20615521;28;20242;-74
2021/04/23 20:11:30;;;;;;;1.90;0.77;;;14.50;99.90;;;;;;20619460;28;20228;-82
2021/04/23 20:21:34;;;;;;;1.43;0.67;;;14.30;99.90;;;;;;20610924;28;20233;-83
2021/04/23 20:31:37;;;;;;;0.43;0.33;;;14.20;99.90;;;;;;20620146;28;20235;-82
2021/04/23 20:41:40;;;;;;;0.33;0.33;;;13.80;99.90;;;;;;20606320;28;20531;-80
2021/04/23 20:51:44;;;;;;;0.50;0.50;;;13.80;99.90;;;;;;20630432;28;20221;-82
2021/04/23 21:01:49;;;;;;;0.57;0.57;;;13.60;99.90;;;;;;20637157;28;20223;-79
2021/04/23 21:11:52;;;;;;;0.60;0.40;;;13.50;99.90;;;;;;20646277;28;20195;-81
2021/04/23 21:21:56;;;;;;;0.40;0.40;;;13.60;99.90;;;;;;20613500;28;20218;-76
2021/04/23 21:32:00;;;;;;;1.00;0.90;;;13.30;99.90;;;;;;20609189;28;20231;-77
2021/04/23 21:42:05;;;;;;;0.40;0.40;;;13.30;99.90;;;;;;20626593;28;20251;-77
2021/04/23 21:52:08;;;;;;;0.63;0.60;;;13.00;99.90;;;;;;20624853;28;20665;-78
2021/04/23 22:02:11;;;;;;;0.70;0.70;;;13.00;99.90;;;;;;20629667;28;20948;-84
2021/04/23 22:12:15;;;;;;;0.27;0.27;;;12.80;99.90;;;;;;20632726;28;20204;-82
2021/04/23 22:22:18;;;;;;;0.50;0.50;;;12.50;99.90;;;;;;20642676;28;20227;-81
2021/04/23 22:32:21;;;;;;;0.47;0.40;;;12.30;99.90;;;;;;20604558;28;20318;-82
2021/04/23 22:42:25;;;;;;;0.67;0.40;;;12.30;99.90;;;;;;20609062;28;20252;-82
2021/04/23 22:52:27;;;;;;;1.20;0.50;;;12.80;99.90;;;;;;20620962;28;20210;-79
2021/04/23 23:02:31;;;;;;;4.47;0.50;;;12.10;99.90;;;;;;20622129;28;20223;-79
2021/04/23 23:12:34;;;;;;;2.63;0.70;;;12.00;99.90;;;;;;20619368;28;20230;-84
2021/04/23 23:22:38;;;;;;;8.10;0.90;;;12.20;99.90;;;;;;20620117;28;20520;-79
2021/04/23 23:32:41;;;;;;;0.30;0.30;;;12.20;99.90;;;;;;20615494;28;20699;-80
2021/04/23 23:42:45;;;;;;;1.00;0.90;;;12.20;99.90;;;;;;20616428;28;20223;-80
2021/04/23 23:52:49;;;;;;;0.63;0.63;;;12.40;99.90;;;;;;20617420;28;20200;-79
